Winburne, Pennsylvania
Current Conditions -  °F | °C
As of 7:54 PM on Tuesday 21 Oct 2014 (Local Time) from KFIG Reporting Station
Overcast Overcast  
Wind Chill: 48°   Ceiling: 1400
Heat Index: 48°   Visibility: 10mi
Dew Point: 47°   Wind: 0mph
Humidity: 96%   Direction: NA
Pressure: 29.93"   Gusts: NA
Location:  40.97°N, 78.15°W
Report Text: KFIG 212354Z AUTO 00000KT 10SM OVC014 09/08 A2993 RMK AO2 RAE2257 SLP140 P0000 60001 T00890083 10111 20089 51018
Loading
Personal Weather Stations






























Interactive Weather Map
Tropical Storm Tracking
New forecast layout! Learn more

10-Day Weather Forecast

Advertisements
Track Severe Weather on mobile